Aviation Digital Data Service (ADDS)

Output produced by METARs form (1950 UTC 14 August 2018)
found at http://www.aviationweather.gov/adds/metars/
 
KPHD 141853Z AUTO 28007KT 10SM FEW090 29/17 A3000 RMK AO2 SLP153 T02940172
KPHD 141753Z AUTO 29008KT 10SM FEW050 SCT100 28/16 A3001 RMK AO2 SLP158 T02830161 10294 20178 56007
KPHD 141653Z AUTO 30005KT 10SM SCT045 28/17 A3001 RMK AO2 SLP157 T02830172
KPHD 141553Z AUTO 00000KT 10SM FEW120 27/17 A3002 RMK AO2 SLP160 T02720172
KPHD 141453Z AUTO 00000KT 10SM CLR 24/18 A3004 RMK AO2 SLP166 T02440183 53005
KPHD 141353Z AUTO 00000KT 10SM OVC110 20/18 A3003 RMK AO2 SLP165 T02000178
KPHD 141253Z AUTO 15003KT 10SM OVC120 18/17 A3002 RMK AO2 SLP164 T01830172
KPHD 141153Z AUTO 00000KT 10SM SCT002 BKN080 OVC120 18/17 A3002 RMK AO2 SLP162 T01780167 10178 20167 53006
KPHD 141135Z AUTO 00000KT 3SM BR OVC002 17/17 A3002 RMK AO2 T01720167
KPHD 141132Z AUTO 00000KT 1 1/4SM BR OVC002 17/17 A3002 RMK AO2 T01720167
KPHD 141107Z AUTO 00000KT 1/4SM FG OVC002 17/16 A3002 RMK AO2 T01720161
KPHD 141059Z AUTO 00000KT 1SM BR OVC002 17/16 A3002 RMK AO2 T01720161
KPHD 141053Z AUTO 00000KT 2SM BR OVC002 17/16 A3001 RMK AO2 SLP159 T01720161
KPHD 141046Z AUTO 00000KT 3SM BR OVC002 17/16 A3001 RMK AO2 T01720161
KPHD 141043Z AUTO 00000KT 1 1/4SM BR OVC002 17/16 A3001 RMK AO2 T01720161
KPHD 140953Z AUTO 00000KT 1/4SM FG VV002 17/16 A3000 RMK AO2 SLP156 T01670161
KPHD 140853Z AUTO 00000KT 3/4SM BR OVC002 17/16 A3000 RMK AO2 SLP154 T01720161 56009
KPHD 140839Z AUTO 00000KT 1 1/2SM BR OVC002 17/16 A3000 RMK AO2 T01720161
KPHD 140753Z AUTO 00000KT 1/4SM FG VV001 17/16 A3001 RMK AO2 SLP156 T01720161
KPHD 140741Z AUTO 00000KT 3/4SM BR VV001 17/16 A3001 RMK AO2 VIS 1/4V5 T01720161
KPHD 140739Z AUTO 00000KT 1 1/2SM BR BKN001 17/16 A3001 RMK AO2 VIS 1/2V5 T01720161
KPHD 140723Z AUTO 00000KT 3SM BR SCT001 17/16 A3001 RMK AO2 T01670161
KPHD 140716Z AUTO 00000KT 1 1/4SM BR BKN001 17/16 A3001 RMK AO2 T01720161
KPHD 140653Z AUTO 00000KT 3/4SM BR VV002 17/17 A3002 RMK AO2 SLP159 T01720167
KPHD 140650Z AUTO 00000KT 1 3/4SM BR BKN002 17/17 A3002 RMK AO2
KPHD 140646Z AUTO 00000KT 3SM BR BKN002 17/17 A3002 RMK AO2 T01720167
KPHD 140643Z AUTO 00000KT 1 1/4SM BR OVC002 17/17 A3002 RMK AO2 T01720167
KPHD 140553Z AUTO 00000KT 1/4SM FG VV002 18/17 A3003 RMK AO2 SLP164 T01780172 10206 20167 55004
KPHD 140505Z AUTO 00000KT 3/4SM BR VV002 17/16 A3003 RMK AO2 T01720161
KPHD 140501Z AUTO 00000KT 5SM BR FEW002 17/16 A3003 RMK AO2 T01720161
KPHD 140453Z AUTO 00000KT 2SM BR FEW002 17/16 A3003 RMK AO2 SLP162 T01670161 403000156
KPHD 140448Z AUTO 00000KT 1 1/4SM BR FEW002 17/16 A3003 RMK AO2 VIS 3/4V2
KPHD 140445Z AUTO 00000KT 3/4SM BR VV002 17/16 A3003 RMK AO2 VIS 1/2V2 T01720161
KPHD 140438Z AUTO 00000KT 1 1/2SM BR FEW002 17/16 A3003 RMK AO2 VIS 1/2V5 T01720161
KPHD 140424Z AUTO 00000KT 8SM FEW002 17/17 A3003 RMK AO2 T01720167
KPHD 140353Z AUTO 00000KT 8SM CLR 18/16 A3004 RMK AO2 SLP165 T01780161
KPHD 140253Z AUTO 14003KT 10SM FEW034 18/17 A3004 RMK AO2 SLP167 T01780167 53007
KPHD 140153Z AUTO 00000KT 10SM SCT110 18/17 A3004 RMK AO2 SLP168 T01830172
KPHD 140053Z AUTO 00000KT 10SM CLR 19/17 A3002 RMK AO2 SLP161 T01890172
KPHD 132353Z AUTO 12004KT 10SM SCT060 21/17 A3002 RMK AO2 SLP162 T02060172 10300 20206 55000
KPHD 132253Z AUTO 13004KT 10SM FEW120 22/18 A3002 RMK AO2 SLP162 T02170178
KPHD 132215Z AUTO 14006KT 10SM FEW055 22/17 A3002 RMK AO2 LTG DSNT ALQDS T02220172
KPHD 132200Z AUTO 11007KT 10SM VCTS BKN055 BKN120 22/17 A3002 RMK AO2 LTG DSNT S AND SW T02220172
KPHD 132153Z AUTO 15007KT 10SM BKN050 BKN120 23/17 A3002 RMK AO2 WSHFT 2110 LTG DSNT S AND SW SLP162 T02280167
KPHD 132149Z AUTO 13008KT 10SM BKN050 BKN100 BKN120 23/17 A3002 RMK AO2 WSHFT 2110 LTG DSNT S AND SW
KPHD 132130Z AUTO 11008KT 10SM VCTS SCT055 BKN100 23/17 A3001 RMK AO2 WSHFT 2110 LTG DSNT ALQDS T02330167
KPHD 132053Z AUTO 36006KT 10SM VCTS FEW060 FEW075 28/15 A3000 RMK AO2 LTG DSNT ALQDS SLP151 T02780150 56008
KPHD 132037Z AUTO 02005KT 10SM FEW060 29/16 A3000 RMK AO2 LTG DSNT N-SE T02890156
KPHD 132022Z AUTO 35009KT 10SM VCTS SCT055 SCT070 29/16 A3000 RMK AO2 LTG DSNT ALQDS T02940161
KPHD 131953Z AUTO 31007KT 10SM BKN055 29/16 A3000 RMK AO2 LTG DSNT NE-S TSB16E31 SLP154 T02940161